sensor_id;sensor_type;location;lat;lon;timestamp;temperature;humidity
18297;DHT22;18066;52.106;5.534;2023-01-20T00:01:18;2.30;99.90
18297;DHT22;18066;52.106;5.534;2023-01-20T00:03:45;2.20;99.90
18297;DHT22;18066;52.106;5.534;2023-01-20T00:06:12;2.20;99.90
18297;DHT22;18066;52.106;5.534;2023-01-20T00:08:39;2.10;99.90
18297;DHT22;18066;52.106;5.534;2023-01-20T00:11:07;2.10;99.90
18297;DHT22;18066;52.106;5.534;2023-01-20T00:13:37;2.00;99.90
18297;DHT22;18066;52.106;5.534;2023-01-20T00:16:05;2.10;99.90
18297;DHT22;18066;52.106;5.534;2023-01-20T00:18:32;2.00;99.90
18297;DHT22;18066;52.106;5.534;2023-01-20T00:21:01;1.90;99.90
18297;DHT22;18066;52.106;5.534;2023-01-20T00:23:29;1.90;99.90
18297;DHT22;18066;52.106;5.534;2023-01-20T00:25:56;1.90;99.90
18297;DHT22;18066;52.106;5.534;2023-01-20T00:28:23;1.90;99.90
18297;DHT22;18066;52.106;5.534;2023-01-20T00:30:52;1.80;99.90
18297;DHT22;18066;52.106;5.534;2023-01-20T00:33:18;1.80;99.90
18297;DHT22;18066;52.106;5.534;2023-01-20T00:35:45;1.80;99.90
18297;DHT22;18066;52.106;5.534;2023-01-20T00:38:12;1.80;99.90
18297;DHT22;18066;52.106;5.534;2023-01-20T00:40:39;1.70;99.90
18297;DHT22;18066;52.106;5.534;2023-01-20T00:43:06;1.70;99.90
18297;DHT22;18066;52.106;5.534;2023-01-20T00:45:33;1.70;99.90
18297;DHT22;18066;52.106;5.534;2023-01-20T00:48:01;1.70;99.90
18297;DHT22;18066;52.106;5.534;2023-01-20T00:50:28;1.70;99.90
18297;DHT22;18066;52.106;5.534;2023-01-20T00:52:55;1.80;99.90
18297;DHT22;18066;52.106;5.534;2023-01-20T00:55:22;1.90;99.90
18297;DHT22;18066;52.106;5.534;2023-01-20T00:57:48;2.00;99.90
18297;DHT22;18066;52.106;5.534;2023-01-20T01:00:17;2.10;99.90
18297;DHT22;18066;52.106;5.534;2023-01-20T01:02:44;2.20;99.90
18297;DHT22;18066;52.106;5.534;2023-01-20T01:05:12;2.20;99.90
18297;DHT22;18066;52.106;5.534;2023-01-20T01:07:39;2.30;99.90
18297;DHT22;18066;52.106;5.534;2023-01-20T01:10:08;2.30;99.90
18297;DHT22;18066;52.106;5.534;2023-01-20T01:12:35;2.30;99.90
18297;DHT22;18066;52.106;5.534;2023-01-20T01:15:02;2.10;99.90
18297;DHT22;18066;52.106;5.534;2023-01-20T01:17:29;2.10;99.90
18297;DHT22;18066;52.106;5.534;2023-01-20T01:19:56;2.10;99.90
18297;DHT22;18066;52.106;5.534;2023-01-20T01:22:24;2.10;99.90
18297;DHT22;18066;52.106;5.534;2023-01-20T01:24:51;2.00;99.90
18297;DHT22;18066;52.106;5.534;2023-01-20T01:27:18;2.10;99.90
18297;DHT22;18066;52.106;5.534;2023-01-20T01:29:45;2.10;99.90
18297;DHT22;18066;52.106;5.534;2023-01-20T01:32:11;2.10;99.90
18297;DHT22;18066;52.106;5.534;2023-01-20T01:34:38;2.00;99.90
18297;DHT22;18066;52.106;5.534;2023-01-20T01:37:05;2.10;99.90
18297;DHT22;18066;52.106;5.534;2023-01-20T01:39:33;2.00;99.90
18297;DHT22;18066;52.106;5.534;2023-01-20T01:42:00;2.00;99.90
18297;DHT22;18066;52.106;5.534;2023-01-20T01:44:27;2.10;99.90
18297;DHT22;18066;52.106;5.534;2023-01-20T01:46:54;2.20;99.90
18297;DHT22;18066;52.106;5.534;2023-01-20T01:49:24;2.20;99.90
18297;DHT22;18066;52.106;5.534;2023-01-20T01:51:56;2.20;99.90
18297;DHT22;18066;52.106;5.534;2023-01-20T01:54:26;2.30;99.90
18297;DHT22;18066;52.106;5.534;2023-01-20T01:56:55;2.30;99.90
18297;DHT22;18066;52.106;5.534;2023-01-20T01:59:22;2.40;99.90
18297;DHT22;18066;52.106;5.534;2023-01-20T02:01:51;2.50;99.90
18297;DHT22;18066;52.106;5.534;2023-01-20T02:04:19;2.60;99.90
18297;DHT22;18066;52.106;5.534;2023-01-20T02:06:50;2.60;99.90
18297;DHT22;18066;52.106;5.534;2023-01-20T02:09:17;2.60;99.90
18297;DHT22;18066;52.106;5.534;2023-01-20T02:11:48;2.60;99.90
18297;DHT22;18066;52.106;5.534;2023-01-20T02:14:19;2.60;99.90
18297;DHT22;18066;52.106;5.534;2023-01-20T02:16:55;2.50;99.90
18297;DHT22;18066;52.106;5.534;2023-01-20T02:19:56;2.60;99.90
18297;DHT22;18066;52.106;5.534;2023-01-20T02:22:35;2.30;99.90
18297;DHT22;18066;52.106;5.534;2023-01-20T02:28:32;2.30;99.90
18297;DHT22;18066;52.106;5.534;2023-01-20T02:31:21;2.20;99.90
18297;DHT22;18066;52.106;5.534;2023-01-20T02:33:56;2.20;99.90
18297;DHT22;18066;52.106;5.534;2023-01-20T02:36:30;2.20;99.90
18297;DHT22;18066;52.106;5.534;2023-01-20T02:39:00;2.20;99.90
18297;DHT22;18066;52.106;5.534;2023-01-20T02:41:34;2.10;99.90
18297;DHT22;18066;52.106;5.534;2023-01-20T02:44:10;2.10;99.90
18297;DHT22;18066;52.106;5.534;2023-01-20T02:46:44;2.20;99.90
18297;DHT22;18066;52.106;5.534;2023-01-20T02:49:17;2.20;99.90
18297;DHT22;18066;52.106;5.534;2023-01-20T02:51:49;2.10;99.90
18297;DHT22;18066;52.106;5.534;2023-01-20T02:54:18;2.00;99.90
18297;DHT22;18066;52.106;5.534;2023-01-20T02:56:47;2.00;99.90
18297;DHT22;18066;52.106;5.534;2023-01-20T02:59:17;2.10;99.90
18297;DHT22;18066;52.106;5.534;2023-01-20T03:01:49;2.30;99.90
18297;DHT22;18066;52.106;5.534;2023-01-20T03:04:23;2.40;99.90
18297;DHT22;18066;52.106;5.534;2023-01-20T03:06:53;2.50;99.90
18297;DHT22;18066;52.106;5.534;2023-01-20T03:09:26;2.50;99.90
18297;DHT22;18066;52.106;5.534;2023-01-20T03:11:57;2.50;99.90
18297;DHT22;18066;52.106;5.534;2023-01-20T03:14:26;2.50;99.90
18297;DHT22;18066;52.106;5.534;2023-01-20T03:16:53;2.60;99.90
18297;DHT22;18066;52.106;5.534;2023-01-20T03:19:22;2.70;99.90
18297;DHT22;18066;52.106;5.534;2023-01-20T03:21:49;2.70;99.90
18297;DHT22;18066;52.106;5.534;2023-01-20T03:24:16;2.70;99.90
18297;DHT22;18066;52.106;5.534;2023-01-20T03:26:42;2.60;99.90
18297;DHT22;18066;52.106;5.534;2023-01-20T03:29:10;2.50;99.90
18297;DHT22;18066;52.106;5.534;2023-01-20T03:31:40;2.50;99.90
18297;DHT22;18066;52.106;5.534;2023-01-20T03:34:10;2.30;99.90
18297;DHT22;18066;52.106;5.534;2023-01-20T03:36:40;2.30;99.90
18297;DHT22;18066;52.106;5.534;2023-01-20T03:39:09;2.30;99.90
18297;DHT22;18066;52.106;5.534;2023-01-20T03:41:42;2.20;99.90
18297;DHT22;18066;52.106;5.534;2023-01-20T03:44:13;2.20;99.90
18297;DHT22;18066;52.106;5.534;2023-01-20T03:46:45;2.20;99.90
18297;DHT22;18066;52.106;5.534;2023-01-20T03:49:18;2.30;99.90
18297;DHT22;18066;52.106;5.534;2023-01-20T03:51:58;2.30;99.90
18297;DHT22;18066;52.106;5.534;2023-01-20T03:54:31;2.30;99.90
18297;DHT22;18066;52.106;5.534;2023-01-20T03:57:04;2.40;99.90
18297;DHT22;18066;52.106;5.534;2023-01-20T03:59:34;2.50;99.90
18297;DHT22;18066;52.106;5.534;2023-01-20T04:02:05;2.60;99.90
18297;DHT22;18066;52.106;5.534;2023-01-20T04:04:35;2.60;99.90
18297;DHT22;18066;52.106;5.534;2023-01-20T04:07:07;2.50;99.90
18297;DHT22;18066;52.106;5.534;2023-01-20T04:09:39;2.60;99.90
18297;DHT22;18066;52.106;5.534;2023-01-20T04:12:08;2.60;99.90
18297;DHT22;18066;52.106;5.534;2023-01-20T04:14:35;2.60;99.90
18297;DHT22;18066;52.106;5.534;2023-01-20T04:17:03;2.60;99.90
18297;DHT22;18066;52.106;5.534;2023-01-20T04:19:32;2.60;99.90
18297;DHT22;18066;52.106;5.534;2023-01-20T04:22:02;2.70;99.90
18297;DHT22;18066;52.106;5.534;2023-01-20T04:24:35;2.80;99.90
18297;DHT22;18066;52.106;5.534;2023-01-20T04:27:03;2.90;99.90
18297;DHT22;18066;52.106;5.534;2023-01-20T04:29:30;2.80;99.90
18297;DHT22;18066;52.106;5.534;2023-01-20T04:31:57;2.80;99.90
18297;DHT22;18066;52.106;5.534;2023-01-20T04:34:25;2.80;99.90
18297;DHT22;18066;52.106;5.534;2023-01-20T04:36:51;2.80;99.90
18297;DHT22;18066;52.106;5.534;2023-01-20T04:39:18;2.90;99.90
18297;DHT22;18066;52.106;5.534;2023-01-20T04:41:47;2.90;99.90
18297;DHT22;18066;52.106;5.534;2023-01-20T04:44:14;2.80;99.90
18297;DHT22;18066;52.106;5.534;2023-01-20T04:46:40;2.80;99.90
18297;DHT22;18066;52.106;5.534;2023-01-20T04:49:07;2.80;99.90
18297;DHT22;18066;52.106;5.534;2023-01-20T04:51:35;2.80;99.90
18297;DHT22;18066;52.106;5.534;2023-01-20T04:54:02;2.80;99.90
18297;DHT22;18066;52.106;5.534;2023-01-20T04:56:29;2.70;99.90
18297;DHT22;18066;52.106;5.534;2023-01-20T04:58:57;2.80;99.90
18297;DHT22;18066;52.106;5.534;2023-01-20T05:01:24;2.70;99.90
18297;DHT22;18066;52.106;5.534;2023-01-20T05:03:51;2.70;99.90
18297;DHT22;18066;52.106;5.534;2023-01-20T05:06:18;2.70;99.90
18297;DHT22;18066;52.106;5.534;2023-01-20T05:08:44;2.80;99.90
18297;DHT22;18066;52.106;5.534;2023-01-20T05:11:11;2.80;99.90
18297;DHT22;18066;52.106;5.534;2023-01-20T05:13:38;2.80;99.90
18297;DHT22;18066;52.106;5.534;2023-01-20T05:16:07;2.80;99.90
18297;DHT22;18066;52.106;5.534;2023-01-20T05:18:35;2.70;99.90
18297;DHT22;18066;52.106;5.534;2023-01-20T05:21:03;2.60;99.90
18297;DHT22;18066;52.106;5.534;2023-01-20T05:23:30;2.60;99.90
18297;DHT22;18066;52.106;5.534;2023-01-20T05:25:56;2.60;99.90
18297;DHT22;18066;52.106;5.534;2023-01-20T05:28:23;2.70;99.90
18297;DHT22;18066;52.106;5.534;2023-01-20T05:30:50;2.70;99.90
18297;DHT22;18066;52.106;5.534;2023-01-20T05:33:18;2.70;99.90
18297;DHT22;18066;52.106;5.534;2023-01-20T05:35:45;2.90;99.90
18297;DHT22;18066;52.106;5.534;2023-01-20T05:38:12;3.00;99.90
18297;DHT22;18066;52.106;5.534;2023-01-20T05:40:39;3.10;99.90
18297;DHT22;18066;52.106;5.534;2023-01-20T05:43:06;3.20;99.90
18297;DHT22;18066;52.106;5.534;2023-01-20T05:45:33;3.20;99.90
18297;DHT22;18066;52.106;5.534;2023-01-20T05:48:00;3.30;99.90
18297;DHT22;18066;52.106;5.534;2023-01-20T05:50:29;3.10;99.90
18297;DHT22;18066;52.106;5.534;2023-01-20T05:52:56;3.00;99.90
18297;DHT22;18066;52.106;5.534;2023-01-20T05:55:22;2.70;99.90
18297;DHT22;18066;52.106;5.534;2023-01-20T05:57:49;2.70;99.90
18297;DHT22;18066;52.106;5.534;2023-01-20T06:00:17;2.60;99.90
18297;DHT22;18066;52.106;5.534;2023-01-20T06:02:44;2.60;99.90
18297;DHT22;18066;52.106;5.534;2023-01-20T06:05:11;2.70;99.90
18297;DHT22;18066;52.106;5.534;2023-01-20T06:07:39;2.80;99.90
18297;DHT22;18066;52.106;5.534;2023-01-20T06:10:06;2.90;99.90
18297;DHT22;18066;52.106;5.534;2023-01-20T06:12:34;3.10;99.90
18297;DHT22;18066;52.106;5.534;2023-01-20T06:15:01;3.20;99.90
18297;DHT22;18066;52.106;5.534;2023-01-20T06:17:27;3.30;99.90
18297;DHT22;18066;52.106;5.534;2023-01-20T06:19:54;3.30;99.90
18297;DHT22;18066;52.106;5.534;2023-01-20T06:22:21;3.20;99.90
18297;DHT22;18066;52.106;5.534;2023-01-20T06:24:49;3.00;99.90
18297;DHT22;18066;52.106;5.534;2023-01-20T06:27:16;3.00;99.90
18297;DHT22;18066;52.106;5.534;2023-01-20T06:29:43;3.00;99.90
18297;DHT22;18066;52.106;5.534;2023-01-20T06:32:10;3.20;99.90
18297;DHT22;18066;52.106;5.534;2023-01-20T06:34:37;3.30;99.90
18297;DHT22;18066;52.106;5.534;2023-01-20T06:37:04;3.40;99.90
18297;DHT22;18066;52.106;5.534;2023-01-20T06:39:31;3.40;99.90
18297;DHT22;18066;52.106;5.534;2023-01-20T06:41:59;3.50;99.90
18297;DHT22;18066;52.106;5.534;2023-01-20T06:44:26;3.40;99.90
18297;DHT22;18066;52.106;5.534;2023-01-20T06:46:53;3.40;99.90
18297;DHT22;18066;52.106;5.534;2023-01-20T06:49:21;3.20;99.90
18297;DHT22;18066;52.106;5.534;2023-01-20T06:51:48;3.20;99.90
18297;DHT22;18066;52.106;5.534;2023-01-20T06:54:15;3.10;99.90
18297;DHT22;18066;52.106;5.534;2023-01-20T06:56:42;3.20;99.90
18297;DHT22;18066;52.106;5.534;2023-01-20T06:59:11;3.20;99.90
18297;DHT22;18066;52.106;5.534;2023-01-20T07:01:38;3.20;99.90
18297;DHT22;18066;52.106;5.534;2023-01-20T07:04:05;3.20;99.90
18297;DHT22;18066;52.106;5.534;2023-01-20T07:06:34;3.10;99.90
18297;DHT22;18066;52.106;5.534;2023-01-20T07:09:03;3.10;99.90
18297;DHT22;18066;52.106;5.534;2023-01-20T07:11:31;3.00;99.90
18297;DHT22;18066;52.106;5.534;2023-01-20T07:13:59;3.00;99.90
18297;DHT22;18066;52.106;5.534;2023-01-20T07:16:28;2.90;99.90
18297;DHT22;18066;52.106;5.534;2023-01-20T07:18:55;2.80;99.90
18297;DHT22;18066;52.106;5.534;2023-01-20T07:21:22;2.70;99.90
18297;DHT22;18066;52.106;5.534;2023-01-20T07:23:49;2.70;99.90
18297;DHT22;18066;52.106;5.534;2023-01-20T07:26:18;2.60;99.90
18297;DHT22;18066;52.106;5.534;2023-01-20T07:28:45;2.60;99.90
18297;DHT22;18066;52.106;5.534;2023-01-20T07:31:15;2.60;99.90
18297;DHT22;18066;52.106;5.534;2023-01-20T07:33:44;2.70;99.90
18297;DHT22;18066;52.106;5.534;2023-01-20T07:36:11;2.80;99.90
18297;DHT22;18066;52.106;5.534;2023-01-20T07:38:39;2.70;99.90
18297;DHT22;18066;52.106;5.534;2023-01-20T07:41:07;2.80;99.90
18297;DHT22;18066;52.106;5.534;2023-01-20T07:43:35;2.70;99.90
18297;DHT22;18066;52.106;5.534;2023-01-20T07:46:03;2.70;99.90
18297;DHT22;18066;52.106;5.534;2023-01-20T07:48:31;2.70;99.90
18297;DHT22;18066;52.106;5.534;2023-01-20T07:51:01;2.80;99.90
18297;DHT22;18066;52.106;5.534;2023-01-20T07:53:30;2.80;99.90
18297;DHT22;18066;52.106;5.534;2023-01-20T07:55:59;2.90;99.90
18297;DHT22;18066;52.106;5.534;2023-01-20T07:58:27;2.90;99.90
18297;DHT22;18066;52.106;5.534;2023-01-20T08:00:54;2.80;99.90
18297;DHT22;18066;52.106;5.534;2023-01-20T08:03:21;2.80;99.90
18297;DHT22;18066;52.106;5.534;2023-01-20T08:05:48;2.90;99.90
18297;DHT22;18066;52.106;5.534;2023-01-20T08:08:16;2.80;99.90
18297;DHT22;18066;52.106;5.534;2023-01-20T08:10:43;2.80;99.90
18297;DHT22;18066;52.106;5.534;2023-01-20T08:13:12;2.80;99.90
18297;DHT22;18066;52.106;5.534;2023-01-20T08:15:38;2.80;99.90
18297;DHT22;18066;52.106;5.534;2023-01-20T08:18:05;2.80;99.90
18297;DHT22;18066;52.106;5.534;2023-01-20T08:20:32;2.80;99.90
18297;DHT22;18066;52.106;5.534;2023-01-20T08:22:59;2.90;99.90
18297;DHT22;18066;52.106;5.534;2023-01-20T08:25:27;2.90;99.90
18297;DHT22;18066;52.106;5.534;2023-01-20T08:27:54;2.80;99.90
18297;DHT22;18066;52.106;5.534;2023-01-20T08:30:21;3.10;99.90
18297;DHT22;18066;52.106;5.534;2023-01-20T08:32:48;3.40;99.90
18297;DHT22;18066;52.106;5.534;2023-01-20T08:35:15;3.40;99.90
18297;DHT22;18066;52.106;5.534;2023-01-20T08:37:42;3.40;99.90
18297;DHT22;18066;52.106;5.534;2023-01-20T08:40:10;3.50;99.90
18297;DHT22;18066;52.106;5.534;2023-01-20T08:42:38;3.50;99.90
18297;DHT22;18066;52.106;5.534;2023-01-20T08:45:06;3.50;99.90
18297;DHT22;18066;52.106;5.534;2023-01-20T08:47:35;3.60;99.90
18297;DHT22;18066;52.106;5.534;2023-01-20T08:50:03;3.60;99.90
18297;DHT22;18066;52.106;5.534;2023-01-20T08:52:29;3.60;99.90
18297;DHT22;18066;52.106;5.534;2023-01-20T08:54:56;3.60;99.90
18297;DHT22;18066;52.106;5.534;2023-01-20T08:57:24;3.60;99.90
18297;DHT22;18066;52.106;5.534;2023-01-20T08:59:53;3.60;99.90
18297;DHT22;18066;52.106;5.534;2023-01-20T09:02:21;3.70;99.90
18297;DHT22;18066;52.106;5.534;2023-01-20T09:04:49;3.50;99.90
18297;DHT22;18066;52.106;5.534;2023-01-20T09:07:16;3.60;99.90
18297;DHT22;18066;52.106;5.534;2023-01-20T09:09:43;3.60;99.90
18297;DHT22;18066;52.106;5.534;2023-01-20T09:12:10;3.50;99.90
18297;DHT22;18066;52.106;5.534;2023-01-20T09:14:37;3.50;99.90
18297;DHT22;18066;52.106;5.534;2023-01-20T09:17:05;3.30;99.90
18297;DHT22;18066;52.106;5.534;2023-01-20T09:19:32;3.50;99.90
18297;DHT22;18066;52.106;5.534;2023-01-20T09:21:59;3.50;99.90
18297;DHT22;18066;52.106;5.534;2023-01-20T09:24:25;3.50;99.90
18297;DHT22;18066;52.106;5.534;2023-01-20T09:26:52;3.50;99.90
18297;DHT22;18066;52.106;5.534;2023-01-20T09:29:20;3.60;99.90
18297;DHT22;18066;52.106;5.534;2023-01-20T09:31:50;3.60;99.90
18297;DHT22;18066;52.106;5.534;2023-01-20T09:34:19;3.60;99.90
18297;DHT22;18066;52.106;5.534;2023-01-20T09:36:50;4.10;99.90
18297;DHT22;18066;52.106;5.534;2023-01-20T09:39:17;3.60;99.90
18297;DHT22;18066;52.106;5.534;2023-01-20T09:42:24;3.60;99.90
18297;DHT22;18066;52.106;5.534;2023-01-20T09:45:16;3.60;99.90
18297;DHT22;18066;52.106;5.534;2023-01-20T09:47:52;3.60;99.90
18297;DHT22;18066;52.106;5.534;2023-01-20T09:50:30;3.70;99.90
18297;DHT22;18066;52.106;5.534;2023-01-20T09:53:34;3.70;99.90
18297;DHT22;18066;52.106;5.534;2023-01-20T09:56:08;3.70;99.90
18297;DHT22;18066;52.106;5.534;2023-01-20T09:58:40;3.70;99.90
18297;DHT22;18066;52.106;5.534;2023-01-20T10:01:14;3.80;99.90
18297;DHT22;18066;52.106;5.534;2023-01-20T10:03:48;3.70;99.90
18297;DHT22;18066;52.106;5.534;2023-01-20T10:06:21;3.70;99.90
18297;DHT22;18066;52.106;5.534;2023-01-20T10:08:54;3.70;99.90
18297;DHT22;18066;52.106;5.534;2023-01-20T10:11:25;3.70;99.90
18297;DHT22;18066;52.106;5.534;2023-01-20T10:14:00;3.70;99.90
18297;DHT22;18066;52.106;5.534;2023-01-20T10:16:32;3.80;99.90
18297;DHT22;18066;52.106;5.534;2023-01-20T10:19:02;3.80;99.90
18297;DHT22;18066;52.106;5.534;2023-01-20T10:21:36;3.80;99.90
18297;DHT22;18066;52.106;5.534;2023-01-20T10:24:09;3.80;99.90
18297;DHT22;18066;52.106;5.534;2023-01-20T10:26:43;3.80;99.90
18297;DHT22;18066;52.106;5.534;2023-01-20T10:29:16;3.80;99.90
18297;DHT22;18066;52.106;5.534;2023-01-20T10:31:49;3.70;99.90
18297;DHT22;18066;52.106;5.534;2023-01-20T10:34:18;3.80;99.90
18297;DHT22;18066;52.106;5.534;2023-01-20T10:36:52;3.80;99.90
18297;DHT22;18066;52.106;5.534;2023-01-20T10:39:27;3.90;99.90
18297;DHT22;18066;52.106;5.534;2023-01-20T10:42:02;3.90;99.90
18297;DHT22;18066;52.106;5.534;2023-01-20T10:44:32;4.00;99.90
18297;DHT22;18066;52.106;5.534;2023-01-20T10:47:15;4.10;99.90
18297;DHT22;18066;52.106;5.534;2023-01-20T10:52:55;4.30;99.90
18297;DHT22;18066;52.106;5.534;2023-01-20T10:55:28;4.30;99.90
18297;DHT22;18066;52.106;5.534;2023-01-20T10:58:03;4.30;99.90
18297;DHT22;18066;52.106;5.534;2023-01-20T11:00:33;4.30;99.90
18297;DHT22;18066;52.106;5.534;2023-01-20T11:03:01;4.40;99.90
18297;DHT22;18066;52.106;5.534;2023-01-20T11:05:32;4.60;99.90
18297;DHT22;18066;52.106;5.534;2023-01-20T11:08:09;4.50;99.90
18297;DHT22;18066;52.106;5.534;2023-01-20T11:10:40;4.40;99.90
18297;DHT22;18066;52.106;5.534;2023-01-20T11:13:09;4.30;99.90
18297;DHT22;18066;52.106;5.534;2023-01-20T11:15:37;4.30;99.90
18297;DHT22;18066;52.106;5.534;2023-01-20T11:18:23;4.20;99.90
18297;DHT22;18066;52.106;5.534;2023-01-20T11:20:55;4.10;99.90
18297;DHT22;18066;52.106;5.534;2023-01-20T11:23:35;4.10;99.90
18297;DHT22;18066;52.106;5.534;2023-01-20T11:26:04;4.00;99.90
18297;DHT22;18066;52.106;5.534;2023-01-20T11:28:46;3.90;99.90
18297;DHT22;18066;52.106;5.534;2023-01-20T11:31:14;3.90;99.90
18297;DHT22;18066;52.106;5.534;2023-01-20T11:33:53;4.00;99.90
18297;DHT22;18066;52.106;5.534;2023-01-20T11:36:21;4.00;99.90
18297;DHT22;18066;52.106;5.534;2023-01-20T11:38:52;4.10;99.90
18297;DHT22;18066;52.106;5.534;2023-01-20T11:41:20;4.00;99.90
18297;DHT22;18066;52.106;5.534;2023-01-20T11:43:48;4.00;99.90
18297;DHT22;18066;52.106;5.534;2023-01-20T11:46:28;4.00;99.90
18297;DHT22;18066;52.106;5.534;2023-01-20T11:49:13;4.10;99.90
18297;DHT22;18066;52.106;5.534;2023-01-20T11:51:47;4.20;99.90
18297;DHT22;18066;52.106;5.534;2023-01-20T11:54:17;4.30;99.90
18297;DHT22;18066;52.106;5.534;2023-01-20T11:56:47;4.30;99.90
18297;DHT22;18066;52.106;5.534;2023-01-20T11:59:23;4.40;99.90
18297;DHT22;18066;52.106;5.534;2023-01-20T12:01:58;4.50;99.90
18297;DHT22;18066;52.106;5.534;2023-01-20T12:04:39;4.60;99.90
18297;DHT22;18066;52.106;5.534;2023-01-20T12:07:13;4.60;99.90
18297;DHT22;18066;52.106;5.534;2023-01-20T12:09:43;4.70;99.90
18297;DHT22;18066;52.106;5.534;2023-01-20T12:12:18;4.60;99.90
18297;DHT22;18066;52.106;5.534;2023-01-20T12:14:51;4.70;99.90
18297;DHT22;18066;52.106;5.534;2023-01-20T12:17:36;4.70;99.90
18297;DHT22;18066;52.106;5.534;2023-01-20T12:20:09;4.80;99.90
18297;DHT22;18066;52.106;5.534;2023-01-20T12:22:46;4.80;99.90
18297;DHT22;18066;52.106;5.534;2023-01-20T12:25:18;4.80;99.90
18297;DHT22;18066;52.106;5.534;2023-01-20T12:27:52;4.80;99.90
18297;DHT22;18066;52.106;5.534;2023-01-20T12:30:49;4.80;99.90
18297;DHT22;18066;52.106;5.534;2023-01-20T12:33:20;4.90;99.90
18297;DHT22;18066;52.106;5.534;2023-01-20T12:36:20;4.80;99.90
18297;DHT22;18066;52.106;5.534;2023-01-20T12:39:15;4.90;99.90
18297;DHT22;18066;52.106;5.534;2023-01-20T12:44:45;4.80;99.90
18297;DHT22;18066;52.106;5.534;2023-01-20T12:47:24;4.80;99.90
18297;DHT22;18066;52.106;5.534;2023-01-20T12:50:10;4.60;99.90
18297;DHT22;18066;52.106;5.534;2023-01-20T12:52:48;4.50;99.90
18297;DHT22;18066;52.106;5.534;2023-01-20T12:55:29;4.60;99.90
18297;DHT22;18066;52.106;5.534;2023-01-20T12:58:12;4.50;99.90
18297;DHT22;18066;52.106;5.534;2023-01-20T13:00:49;4.50;99.90
18297;DHT22;18066;52.106;5.534;2023-01-20T13:03:40;4.70;99.90
18297;DHT22;18066;52.106;5.534;2023-01-20T13:06:36;4.60;99.90
18297;DHT22;18066;52.106;5.534;2023-01-20T13:09:16;4.50;99.90
18297;DHT22;18066;52.106;5.534;2023-01-20T13:11:56;4.40;99.90
18297;DHT22;18066;52.106;5.534;2023-01-20T13:14:32;4.40;99.90
18297;DHT22;18066;52.106;5.534;2023-01-20T13:17:11;4.30;99.90
18297;DHT22;18066;52.106;5.534;2023-01-20T13:19:42;4.30;99.90
18297;DHT22;18066;52.106;5.534;2023-01-20T13:22:12;4.30;99.90
18297;DHT22;18066;52.106;5.534;2023-01-20T13:24:43;4.40;99.90
18297;DHT22;18066;52.106;5.534;2023-01-20T13:27:11;4.50;99.90
18297;DHT22;18066;52.106;5.534;2023-01-20T13:29:52;4.50;99.90
18297;DHT22;18066;52.106;5.534;2023-01-20T13:32:31;4.70;99.90
18297;DHT22;18066;52.106;5.534;2023-01-20T13:34:59;4.70;99.90
18297;DHT22;18066;52.106;5.534;2023-01-20T13:37:29;4.60;99.90
18297;DHT22;18066;52.106;5.534;2023-01-20T13:39:57;4.80;99.90
18297;DHT22;18066;52.106;5.534;2023-01-20T13:42:47;4.70;99.90
18297;DHT22;18066;52.106;5.534;2023-01-20T13:45:26;4.70;99.90
18297;DHT22;18066;52.106;5.534;2023-01-20T13:47:58;4.80;99.90
18297;DHT22;18066;52.106;5.534;2023-01-20T13:50:28;4.70;99.90
18297;DHT22;18066;52.106;5.534;2023-01-20T13:55:56;4.80;99.90
18297;DHT22;18066;52.106;5.534;2023-01-20T13:58:23;4.90;99.90
18297;DHT22;18066;52.106;5.534;2023-01-20T14:00:53;5.10;99.90
18297;DHT22;18066;52.106;5.534;2023-01-20T14:03:22;4.90;99.90
18297;DHT22;18066;52.106;5.534;2023-01-20T14:05:50;4.80;99.90
18297;DHT22;18066;52.106;5.534;2023-01-20T14:08:18;4.80;99.90
18297;DHT22;18066;52.106;5.534;2023-01-20T14:10:46;4.80;99.90
18297;DHT22;18066;52.106;5.534;2023-01-20T14:13:19;4.80;99.90
18297;DHT22;18066;52.106;5.534;2023-01-20T14:15:49;4.70;99.90
18297;DHT22;18066;52.106;5.534;2023-01-20T14:18:20;4.60;99.90
18297;DHT22;18066;52.106;5.534;2023-01-20T14:20:59;4.60;99.90
18297;DHT22;18066;52.106;5.534;2023-01-20T14:23:31;4.50;99.90
18297;DHT22;18066;52.106;5.534;2023-01-20T14:26:07;4.50;99.90
18297;DHT22;18066;52.106;5.534;2023-01-20T14:28:46;4.50;99.90
18297;DHT22;18066;52.106;5.534;2023-01-20T14:31:33;4.70;99.90
18297;DHT22;18066;52.106;5.534;2023-01-20T14:34:22;4.70;99.90
18297;DHT22;18066;52.106;5.534;2023-01-20T14:36:50;4.80;99.90
18297;DHT22;18066;52.106;5.534;2023-01-20T14:39:19;4.90;99.90
18297;DHT22;18066;52.106;5.534;2023-01-20T14:41:49;4.90;99.90
18297;DHT22;18066;52.106;5.534;2023-01-20T14:44:18;5.00;99.90
18297;DHT22;18066;52.106;5.534;2023-01-20T14:46:47;5.10;99.90
18297;DHT22;18066;52.106;5.534;2023-01-20T14:49:15;5.10;99.90
18297;DHT22;18066;52.106;5.534;2023-01-20T14:51:45;5.00;99.90
18297;DHT22;18066;52.106;5.534;2023-01-20T14:54:29;5.10;99.90
18297;DHT22;18066;52.106;5.534;2023-01-20T14:57:03;5.10;99.90
18297;DHT22;18066;52.106;5.534;2023-01-20T14:59:36;5.10;99.90
18297;DHT22;18066;52.106;5.534;2023-01-20T15:02:10;5.00;99.90
18297;DHT22;18066;52.106;5.534;2023-01-20T15:04:40;5.10;99.90
18297;DHT22;18066;52.106;5.534;2023-01-20T15:07:16;5.00;99.90
18297;DHT22;18066;52.106;5.534;2023-01-20T15:09:50;5.00;99.90
18297;DHT22;18066;52.106;5.534;2023-01-20T15:12:36;4.80;99.90
18297;DHT22;18066;52.106;5.534;2023-01-20T15:15:26;4.60;99.90
18297;DHT22;18066;52.106;5.534;2023-01-20T15:18:16;4.40;99.90
18297;DHT22;18066;52.106;5.534;2023-01-20T15:20:46;4.50;99.90
18297;DHT22;18066;52.106;5.534;2023-01-20T15:23:19;4.50;99.90
18297;DHT22;18066;52.106;5.534;2023-01-20T15:25:47;4.60;99.90
18297;DHT22;18066;52.106;5.534;2023-01-20T15:28:20;4.70;99.90
18297;DHT22;18066;52.106;5.534;2023-01-20T15:30:49;4.80;99.90
18297;DHT22;18066;52.106;5.534;2023-01-20T15:33:16;4.70;99.90
18297;DHT22;18066;52.106;5.534;2023-01-20T15:35:45;4.60;99.90
18297;DHT22;18066;52.106;5.534;2023-01-20T15:38:17;4.40;99.90
18297;DHT22;18066;52.106;5.534;2023-01-20T15:40:44;4.30;99.90
18297;DHT22;18066;52.106;5.534;2023-01-20T15:43:14;4.30;99.90
18297;DHT22;18066;52.106;5.534;2023-01-20T15:45:41;4.30;99.90
18297;DHT22;18066;52.106;5.534;2023-01-20T15:48:14;4.20;99.90
18297;DHT22;18066;52.106;5.534;2023-01-20T15:50:41;4.20;99.90
18297;DHT22;18066;52.106;5.534;2023-01-20T15:53:08;4.20;99.90
18297;DHT22;18066;52.106;5.534;2023-01-20T15:55:40;4.30;99.90
18297;DHT22;18066;52.106;5.534;2023-01-20T15:58:19;4.30;99.90
18297;DHT22;18066;52.106;5.534;2023-01-20T16:00:47;4.40;99.90
18297;DHT22;18066;52.106;5.534;2023-01-20T16:03:14;4.50;99.90
18297;DHT22;18066;52.106;5.534;2023-01-20T16:05:41;4.60;99.90
18297;DHT22;18066;52.106;5.534;2023-01-20T16:08:13;4.40;99.90
18297;DHT22;18066;52.106;5.534;2023-01-20T16:10:42;4.40;99.90
18297;DHT22;18066;52.106;5.534;2023-01-20T16:13:09;4.30;99.90
18297;DHT22;18066;52.106;5.534;2023-01-20T16:15:36;4.20;99.90
18297;DHT22;18066;52.106;5.534;2023-01-20T16:18:04;4.30;99.90
18297;DHT22;18066;52.106;5.534;2023-01-20T16:20:33;4.00;99.90